Terminal Aerodrome Forecast
Issued by NWS

Home | Current Version | Previous Version | Text Only | Print | Product List | Glossary On
Versions: 1 2 3 4 5 6 7 8 9 10 11 12 13
000
FTUS44 KCRP 280500
TAFALI
TAF
KALI 280525Z 2806/2906 15005KT P6SM SKC
      TEMPO 2811/2814 4SM BR SCT015
     FM281400 18010KT P6SM SCT025
     FM282000 14017G23KT P6SM FEW050
     FM290100 15010KT P6SM SKC=

USA.gov is the U.S. government's official web portal to all federal, state and local government web resources and services.